sensor_id;sensor_type;location;lat;lon;timestamp;P1;durP1;ratioP1;P2;durP2;ratioP2
39018;SDS011;24786;51.984;5.872;2023-03-08T00:01:00;13.43;;;5.83;;
39018;SDS011;24786;51.984;5.872;2023-03-08T00:03:27;8.43;;;5.77;;
39018;SDS011;24786;51.984;5.872;2023-03-08T00:05:52;9.50;;;6.00;;
39018;SDS011;24786;51.984;5.872;2023-03-08T00:08:18;9.97;;;6.30;;
39018;SDS011;24786;51.984;5.872;2023-03-08T00:10:44;9.63;;;6.17;;
39018;SDS011;24786;51.984;5.872;2023-03-08T00:13:09;12.17;;;7.03;;
39018;SDS011;24786;51.984;5.872;2023-03-08T00:15:36;11.80;;;7.37;;
39018;SDS011;24786;51.984;5.872;2023-03-08T00:18:02;12.33;;;7.33;;
39018;SDS011;24786;51.984;5.872;2023-03-08T00:20:28;17.83;;;8.53;;
39018;SDS011;24786;51.984;5.872;2023-03-08T00:22:53;15.73;;;8.33;;
39018;SDS011;24786;51.984;5.872;2023-03-08T00:25:19;13.90;;;9.10;;
39018;SDS011;24786;51.984;5.872;2023-03-08T00:27:44;17.00;;;10.10;;
39018;SDS011;24786;51.984;5.872;2023-03-08T00:30:10;22.10;;;12.17;;
39018;SDS011;24786;51.984;5.872;2023-03-08T00:32:36;22.93;;;13.30;;
39018;SDS011;24786;51.984;5.872;2023-03-08T00:35:02;24.70;;;14.47;;
39018;SDS011;24786;51.984;5.872;2023-03-08T00:37:27;25.13;;;14.40;;
39018;SDS011;24786;51.984;5.872;2023-03-08T00:39:53;27.70;;;15.60;;
39018;SDS011;24786;51.984;5.872;2023-03-08T00:42:19;28.80;;;14.93;;
39018;SDS011;24786;51.984;5.872;2023-03-08T00:44:45;31.67;;;16.47;;
39018;SDS011;24786;51.984;5.872;2023-03-08T00:47:11;29.40;;;15.43;;
39018;SDS011;24786;51.984;5.872;2023-03-08T00:49:37;38.07;;;18.07;;
39018;SDS011;24786;51.984;5.872;2023-03-08T00:52:02;32.03;;;16.83;;
39018;SDS011;24786;51.984;5.872;2023-03-08T00:54:28;32.87;;;16.83;;
39018;SDS011;24786;51.984;5.872;2023-03-08T00:56:54;31.37;;;17.50;;
39018;SDS011;24786;51.984;5.872;2023-03-08T00:59:20;33.00;;;17.83;;
39018;SDS011;24786;51.984;5.872;2023-03-08T01:01:45;31.57;;;17.73;;
39018;SDS011;24786;51.984;5.872;2023-03-08T01:04:11;34.00;;;18.90;;
39018;SDS011;24786;51.984;5.872;2023-03-08T01:06:37;30.23;;;17.67;;
39018;SDS011;24786;51.984;5.872;2023-03-08T01:09:03;29.83;;;18.27;;
39018;SDS011;24786;51.984;5.872;2023-03-08T01:11:29;32.53;;;18.87;;
39018;SDS011;24786;51.984;5.872;2023-03-08T01:13:55;35.37;;;19.17;;
39018;SDS011;24786;51.984;5.872;2023-03-08T01:18:46;31.03;;;19.03;;
39018;SDS011;24786;51.984;5.872;2023-03-08T01:21:12;30.80;;;19.00;;
39018;SDS011;24786;51.984;5.872;2023-03-08T01:23:38;37.17;;;18.77;;
39018;SDS011;24786;51.984;5.872;2023-03-08T01:26:04;32.87;;;19.93;;
39018;SDS011;24786;51.984;5.872;2023-03-08T01:28:38;32.27;;;19.00;;
39018;SDS011;24786;51.984;5.872;2023-03-08T01:31:08;29.37;;;17.50;;
39018;SDS011;24786;51.984;5.872;2023-03-08T01:33:40;31.97;;;18.27;;
39018;SDS011;24786;51.984;5.872;2023-03-08T01:36:07;29.87;;;18.43;;
39018;SDS011;24786;51.984;5.872;2023-03-08T01:38:34;33.27;;;19.30;;
39018;SDS011;24786;51.984;5.872;2023-03-08T01:41:01;33.23;;;20.50;;
39018;SDS011;24786;51.984;5.872;2023-03-08T01:43:32;32.50;;;19.87;;
39018;SDS011;24786;51.984;5.872;2023-03-08T01:46:01;34.20;;;20.43;;
39018;SDS011;24786;51.984;5.872;2023-03-08T01:48:30;36.35;;;21.65;;
39018;SDS011;24786;51.984;5.872;2023-03-08T01:51:02;33.07;;;20.90;;
39018;SDS011;24786;51.984;5.872;2023-03-08T01:53:30;36.57;;;21.47;;
39018;SDS011;24786;51.984;5.872;2023-03-08T01:55:57;35.30;;;21.27;;
39018;SDS011;24786;51.984;5.872;2023-03-08T01:58:23;38.10;;;21.53;;
39018;SDS011;24786;51.984;5.872;2023-03-08T02:00:49;37.20;;;22.13;;
39018;SDS011;24786;51.984;5.872;2023-03-08T02:03:15;39.70;;;22.97;;
39018;SDS011;24786;51.984;5.872;2023-03-08T02:05:41;34.97;;;21.07;;
39018;SDS011;24786;51.984;5.872;2023-03-08T02:08:08;35.00;;;21.27;;
39018;SDS011;24786;51.984;5.872;2023-03-08T02:10:34;41.37;;;23.27;;
39018;SDS011;24786;51.984;5.872;2023-03-08T02:13:02;43.10;;;22.83;;
39018;SDS011;24786;51.984;5.872;2023-03-08T02:15:29;41.57;;;22.23;;
39018;SDS011;24786;51.984;5.872;2023-03-08T02:17:54;39.93;;;20.60;;
39018;SDS011;24786;51.984;5.872;2023-03-08T02:20:21;47.30;;;23.17;;
39018;SDS011;24786;51.984;5.872;2023-03-08T02:23:12;35.93;;;21.80;;
39018;SDS011;24786;51.984;5.872;2023-03-08T02:25:40;78.60;;;22.47;;
39018;SDS011;24786;51.984;5.872;2023-03-08T02:28:13;42.60;;;22.53;;
39018;SDS011;24786;51.984;5.872;2023-03-08T02:30:39;38.30;;;21.63;;
39018;SDS011;24786;51.984;5.872;2023-03-08T02:33:05;36.73;;;21.10;;
39018;SDS011;24786;51.984;5.872;2023-03-08T02:35:30;43.67;;;22.40;;
39018;SDS011;24786;51.984;5.872;2023-03-08T02:37:56;41.17;;;23.17;;
39018;SDS011;24786;51.984;5.872;2023-03-08T02:40:22;42.67;;;23.20;;
39018;SDS011;24786;51.984;5.872;2023-03-08T02:42:47;37.77;;;21.33;;
39018;SDS011;24786;51.984;5.872;2023-03-08T02:45:13;39.73;;;21.90;;
39018;SDS011;24786;51.984;5.872;2023-03-08T02:47:38;41.93;;;21.30;;
39018;SDS011;24786;51.984;5.872;2023-03-08T02:50:04;35.97;;;21.13;;
39018;SDS011;24786;51.984;5.872;2023-03-08T02:52:30;42.93;;;22.10;;
39018;SDS011;24786;51.984;5.872;2023-03-08T02:54:56;38.77;;;20.70;;
39018;SDS011;24786;51.984;5.872;2023-03-08T02:57:21;42.35;;;21.50;;
39018;SDS011;24786;51.984;5.872;2023-03-08T02:59:47;39.90;;;21.63;;
39018;SDS011;24786;51.984;5.872;2023-03-08T03:02:12;38.10;;;21.53;;
39018;SDS011;24786;51.984;5.872;2023-03-08T03:04:38;40.70;;;21.70;;
39018;SDS011;24786;51.984;5.872;2023-03-08T03:07:03;47.83;;;24.23;;
39018;SDS011;24786;51.984;5.872;2023-03-08T03:09:29;43.43;;;23.70;;
39018;SDS011;24786;51.984;5.872;2023-03-08T03:11:55;49.73;;;24.23;;
39018;SDS011;24786;51.984;5.872;2023-03-08T03:14:20;51.40;;;25.13;;
39018;SDS011;24786;51.984;5.872;2023-03-08T03:16:46;50.77;;;25.73;;
39018;SDS011;24786;51.984;5.872;2023-03-08T03:19:12;53.58;;;26.83;;
39018;SDS011;24786;51.984;5.872;2023-03-08T03:21:38;50.77;;;25.87;;
39018;SDS011;24786;51.984;5.872;2023-03-08T03:24:04;49.60;;;24.73;;
39018;SDS011;24786;51.984;5.872;2023-03-08T03:26:29;88.80;;;28.65;;
39018;SDS011;24786;51.984;5.872;2023-03-08T03:28:56;58.88;;;28.50;;
39018;SDS011;24786;51.984;5.872;2023-03-08T03:31:22;56.63;;;26.95;;
39018;SDS011;24786;51.984;5.872;2023-03-08T03:33:49;53.40;;;27.47;;
39018;SDS011;24786;51.984;5.872;2023-03-08T03:36:16;74.85;;;28.83;;
39018;SDS011;24786;51.984;5.872;2023-03-08T03:38:43;72.57;;;28.98;;
39018;SDS011;24786;51.984;5.872;2023-03-08T03:41:10;93.00;;;31.67;;
39018;SDS011;24786;51.984;5.872;2023-03-08T03:43:44;69.93;;;29.37;;
39018;SDS011;24786;51.984;5.872;2023-03-08T03:46:11;71.55;;;30.20;;
39018;SDS011;24786;51.984;5.872;2023-03-08T03:48:38;89.10;;;31.98;;
39018;SDS011;24786;51.984;5.872;2023-03-08T03:51:05;85.63;;;34.55;;
39018;SDS011;24786;51.984;5.872;2023-03-08T03:53:32;78.28;;;33.38;;
39018;SDS011;24786;51.984;5.872;2023-03-08T03:56:06;77.68;;;33.30;;
39018;SDS011;24786;51.984;5.872;2023-03-08T03:58:34;98.90;;;33.53;;
39018;SDS011;24786;51.984;5.872;2023-03-08T04:01:00;97.30;;;33.33;;
39018;SDS011;24786;51.984;5.872;2023-03-08T04:03:30;84.00;;;33.33;;
39018;SDS011;24786;51.984;5.872;2023-03-08T04:06:03;85.27;;;34.17;;
39018;SDS011;24786;51.984;5.872;2023-03-08T04:08:32;90.33;;;34.67;;
39018;SDS011;24786;51.984;5.872;2023-03-08T04:10:59;135.50;;;37.70;;
39018;SDS011;24786;51.984;5.872;2023-03-08T04:13:24;93.60;;;34.73;;
39018;SDS011;24786;51.984;5.872;2023-03-08T04:15:50;200.97;;;40.17;;
39018;SDS011;24786;51.984;5.872;2023-03-08T04:18:16;136.35;;;34.83;;
39018;SDS011;24786;51.984;5.872;2023-03-08T04:20:42;82.37;;;34.00;;
39018;SDS011;24786;51.984;5.872;2023-03-08T04:23:09;87.20;;;33.67;;
39018;SDS011;24786;51.984;5.872;2023-03-08T04:25:34;98.67;;;34.17;;
39018;SDS011;24786;51.984;5.872;2023-03-08T04:28:00;112.40;;;36.47;;
39018;SDS011;24786;51.984;5.872;2023-03-08T04:30:25;90.65;;;36.97;;
39018;SDS011;24786;51.984;5.872;2023-03-08T04:32:51;92.03;;;37.30;;
39018;SDS011;24786;51.984;5.872;2023-03-08T04:35:16;108.20;;;37.47;;
39018;SDS011;24786;51.984;5.872;2023-03-08T04:37:43;92.30;;;35.75;;
39018;SDS011;24786;51.984;5.872;2023-03-08T04:40:10;102.40;;;35.92;;
39018;SDS011;24786;51.984;5.872;2023-03-08T04:42:37;104.27;;;37.73;;
39018;SDS011;24786;51.984;5.872;2023-03-08T04:45:04;232.00;;;42.15;;
39018;SDS011;24786;51.984;5.872;2023-03-08T04:47:31;104.53;;;39.03;;
39018;SDS011;24786;51.984;5.872;2023-03-08T04:49:56;108.55;;;40.05;;
39018;SDS011;24786;51.984;5.872;2023-03-08T04:52:22;235.53;;;46.33;;
39018;SDS011;24786;51.984;5.872;2023-03-08T04:54:48;252.10;;;43.58;;
39018;SDS011;24786;51.984;5.872;2023-03-08T04:57:14;104.50;;;39.17;;
39018;SDS011;24786;51.984;5.872;2023-03-08T04:59:41;120.50;;;38.95;;
39018;SDS011;24786;51.984;5.872;2023-03-08T05:02:07;305.10;;;45.25;;
39018;SDS011;24786;51.984;5.872;2023-03-08T05:04:33;113.75;;;41.28;;
39018;SDS011;24786;51.984;5.872;2023-03-08T05:06:58;104.70;;;41.00;;
39018;SDS011;24786;51.984;5.872;2023-03-08T05:09:24;112.72;;;39.20;;
39018;SDS011;24786;51.984;5.872;2023-03-08T05:11:50;97.10;;;37.92;;
39018;SDS011;24786;51.984;5.872;2023-03-08T05:14:15;104.47;;;36.80;;
39018;SDS011;24786;51.984;5.872;2023-03-08T05:16:41;102.50;;;38.47;;
39018;SDS011;24786;51.984;5.872;2023-03-08T05:19:06;103.97;;;39.92;;
39018;SDS011;24786;51.984;5.872;2023-03-08T05:21:32;103.82;;;38.08;;
39018;SDS011;24786;51.984;5.872;2023-03-08T05:23:58;104.25;;;39.03;;
39018;SDS011;24786;51.984;5.872;2023-03-08T05:26:24;100.38;;;40.08;;
39018;SDS011;24786;51.984;5.872;2023-03-08T05:28:50;131.02;;;39.30;;
39018;SDS011;24786;51.984;5.872;2023-03-08T05:31:16;107.63;;;40.63;;
39018;SDS011;24786;51.984;5.872;2023-03-08T05:33:44;91.88;;;37.40;;
39018;SDS011;24786;51.984;5.872;2023-03-08T05:36:14;107.88;;;40.70;;
39018;SDS011;24786;51.984;5.872;2023-03-08T05:38:41;118.25;;;39.08;;
39018;SDS011;24786;51.984;5.872;2023-03-08T05:41:07;107.85;;;41.90;;
39018;SDS011;24786;51.984;5.872;2023-03-08T05:43:35;111.30;;;40.90;;
39018;SDS011;24786;51.984;5.872;2023-03-08T05:46:10;107.27;;;39.90;;
39018;SDS011;24786;51.984;5.872;2023-03-08T05:48:37;101.68;;;40.08;;
39018;SDS011;24786;51.984;5.872;2023-03-08T05:51:09;107.25;;;40.40;;
39018;SDS011;24786;51.984;5.872;2023-03-08T05:53:37;93.57;;;38.25;;
39018;SDS011;24786;51.984;5.872;2023-03-08T05:56:10;100.90;;;39.30;;
39018;SDS011;24786;51.984;5.872;2023-03-08T05:58:41;94.55;;;35.28;;
39018;SDS011;24786;51.984;5.872;2023-03-08T06:01:08;88.60;;;36.90;;
39018;SDS011;24786;51.984;5.872;2023-03-08T06:03:35;104.33;;;38.60;;
39018;SDS011;24786;51.984;5.872;2023-03-08T06:06:01;91.55;;;36.90;;
39018;SDS011;24786;51.984;5.872;2023-03-08T06:08:26;81.95;;;36.67;;
39018;SDS011;24786;51.984;5.872;2023-03-08T06:10:52;92.37;;;37.53;;
39018;SDS011;24786;51.984;5.872;2023-03-08T06:13:17;99.22;;;36.72;;
39018;SDS011;24786;51.984;5.872;2023-03-08T06:15:43;101.03;;;38.53;;
39018;SDS011;24786;51.984;5.872;2023-03-08T06:18:08;86.05;;;35.50;;
39018;SDS011;24786;51.984;5.872;2023-03-08T06:20:34;102.73;;;37.90;;
39018;SDS011;24786;51.984;5.872;2023-03-08T06:22:59;95.30;;;37.85;;
39018;SDS011;24786;51.984;5.872;2023-03-08T06:25:25;104.43;;;38.10;;
39018;SDS011;24786;51.984;5.872;2023-03-08T06:27:51;112.65;;;39.28;;
39018;SDS011;24786;51.984;5.872;2023-03-08T06:30:16;95.53;;;38.15;;
39018;SDS011;24786;51.984;5.872;2023-03-08T06:32:42;100.60;;;37.60;;
39018;SDS011;24786;51.984;5.872;2023-03-08T06:35:08;93.90;;;36.65;;
39018;SDS011;24786;51.984;5.872;2023-03-08T06:37:34;102.18;;;40.55;;
39018;SDS011;24786;51.984;5.872;2023-03-08T06:40:00;95.03;;;37.05;;
39018;SDS011;24786;51.984;5.872;2023-03-08T06:42:26;97.97;;;39.03;;
39018;SDS011;24786;51.984;5.872;2023-03-08T06:44:52;90.90;;;37.40;;
39018;SDS011;24786;51.984;5.872;2023-03-08T06:47:17;106.05;;;38.67;;
39018;SDS011;24786;51.984;5.872;2023-03-08T06:49:43;87.72;;;35.45;;
39018;SDS011;24786;51.984;5.872;2023-03-08T06:52:08;90.13;;;36.75;;
39018;SDS011;24786;51.984;5.872;2023-03-08T06:54:34;92.28;;;33.80;;
39018;SDS011;24786;51.984;5.872;2023-03-08T06:57:00;78.35;;;33.83;;
39018;SDS011;24786;51.984;5.872;2023-03-08T06:59:25;75.95;;;31.58;;
39018;SDS011;24786;51.984;5.872;2023-03-08T07:01:51;78.25;;;31.52;;
39018;SDS011;24786;51.984;5.872;2023-03-08T07:07:07;69.10;;;30.80;;
39018;SDS011;24786;51.984;5.872;2023-03-08T07:09:33;75.60;;;32.35;;
39018;SDS011;24786;51.984;5.872;2023-03-08T07:11:58;68.82;;;30.77;;
39018;SDS011;24786;51.984;5.872;2023-03-08T07:14:24;84.38;;;32.30;;
39018;SDS011;24786;51.984;5.872;2023-03-08T07:16:49;78.67;;;32.50;;
39018;SDS011;24786;51.984;5.872;2023-03-08T07:19:15;69.75;;;30.33;;
39018;SDS011;24786;51.984;5.872;2023-03-08T07:21:41;75.85;;;30.27;;
39018;SDS011;24786;51.984;5.872;2023-03-08T07:24:08;75.13;;;31.33;;
39018;SDS011;24786;51.984;5.872;2023-03-08T07:26:34;81.78;;;33.45;;
39018;SDS011;24786;51.984;5.872;2023-03-08T07:29:00;77.85;;;32.83;;
39018;SDS011;24786;51.984;5.872;2023-03-08T07:31:25;76.47;;;30.55;;
39018;SDS011;24786;51.984;5.872;2023-03-08T07:33:53;83.75;;;34.08;;
39018;SDS011;24786;51.984;5.872;2023-03-08T07:36:19;86.25;;;34.80;;
39018;SDS011;24786;51.984;5.872;2023-03-08T07:38:44;79.30;;;32.65;;
39018;SDS011;24786;51.984;5.872;2023-03-08T07:41:11;77.88;;;31.85;;
39018;SDS011;24786;51.984;5.872;2023-03-08T07:43:37;79.63;;;31.38;;
39018;SDS011;24786;51.984;5.872;2023-03-08T07:46:03;86.45;;;35.97;;
39018;SDS011;24786;51.984;5.872;2023-03-08T07:48:29;84.47;;;33.20;;
39018;SDS011;24786;51.984;5.872;2023-03-08T07:51:14;83.97;;;35.67;;
39018;SDS011;24786;51.984;5.872;2023-03-08T07:53:39;88.68;;;35.17;;
39018;SDS011;24786;51.984;5.872;2023-03-08T07:56:05;91.55;;;35.17;;
39018;SDS011;24786;51.984;5.872;2023-03-08T07:58:31;86.13;;;33.17;;
39018;SDS011;24786;51.984;5.872;2023-03-08T08:00:56;82.45;;;33.03;;
39018;SDS011;24786;51.984;5.872;2023-03-08T08:03:22;91.60;;;34.83;;
39018;SDS011;24786;51.984;5.872;2023-03-08T08:05:48;91.75;;;35.70;;
39018;SDS011;24786;51.984;5.872;2023-03-08T08:08:13;86.40;;;35.33;;
39018;SDS011;24786;51.984;5.872;2023-03-08T08:10:39;90.07;;;33.13;;
39018;SDS011;24786;51.984;5.872;2023-03-08T08:13:05;87.25;;;34.33;;
39018;SDS011;24786;51.984;5.872;2023-03-08T08:15:31;82.95;;;34.58;;
39018;SDS011;24786;51.984;5.872;2023-03-08T08:17:57;82.43;;;34.42;;
39018;SDS011;24786;51.984;5.872;2023-03-08T08:20:23;85.05;;;33.10;;
39018;SDS011;24786;51.984;5.872;2023-03-08T08:22:50;86.57;;;34.45;;
39018;SDS011;24786;51.984;5.872;2023-03-08T08:25:17;82.60;;;32.65;;
39018;SDS011;24786;51.984;5.872;2023-03-08T08:27:43;90.90;;;37.10;;
39018;SDS011;24786;51.984;5.872;2023-03-08T08:30:10;86.47;;;36.65;;
39018;SDS011;24786;51.984;5.872;2023-03-08T08:32:37;92.47;;;37.08;;
39018;SDS011;24786;51.984;5.872;2023-03-08T08:35:03;88.43;;;33.88;;
39018;SDS011;24786;51.984;5.872;2023-03-08T08:37:30;84.10;;;33.00;;
39018;SDS011;24786;51.984;5.872;2023-03-08T08:39:56;82.70;;;32.25;;
39018;SDS011;24786;51.984;5.872;2023-03-08T08:42:21;84.18;;;33.15;;
39018;SDS011;24786;51.984;5.872;2023-03-08T08:44:47;82.10;;;31.73;;
39018;SDS011;24786;51.984;5.872;2023-03-08T08:47:13;71.82;;;28.88;;
39018;SDS011;24786;51.984;5.872;2023-03-08T08:49:38;70.80;;;29.45;;
39018;SDS011;24786;51.984;5.872;2023-03-08T08:52:04;67.68;;;28.23;;
39018;SDS011;24786;51.984;5.872;2023-03-08T08:54:29;64.25;;;26.52;;
39018;SDS011;24786;51.984;5.872;2023-03-08T08:56:57;61.72;;;27.35;;
39018;SDS011;24786;51.984;5.872;2023-03-08T08:59:23;59.78;;;26.58;;
39018;SDS011;24786;51.984;5.872;2023-03-08T09:01:48;60.83;;;24.55;;
39018;SDS011;24786;51.984;5.872;2023-03-08T09:04:14;51.70;;;24.50;;
39018;SDS011;24786;51.984;5.872;2023-03-08T09:06:40;47.03;;;22.75;;
39018;SDS011;24786;51.984;5.872;2023-03-08T09:09:06;47.92;;;21.33;;
39018;SDS011;24786;51.984;5.872;2023-03-08T09:11:32;46.25;;;20.92;;
39018;SDS011;24786;51.984;5.872;2023-03-08T09:13:58;37.78;;;18.02;;
39018;SDS011;24786;51.984;5.872;2023-03-08T09:18:52;44.45;;;19.70;;
39018;SDS011;24786;51.984;5.872;2023-03-08T09:21:20;44.53;;;19.27;;
39018;SDS011;24786;51.984;5.872;2023-03-08T09:23:45;44.58;;;19.35;;
39018;SDS011;24786;51.984;5.872;2023-03-08T09:26:11;45.15;;;20.20;;
39018;SDS011;24786;51.984;5.872;2023-03-08T09:28:37;45.70;;;20.42;;
39018;SDS011;24786;51.984;5.872;2023-03-08T09:31:06;42.30;;;18.38;;
39018;SDS011;24786;51.984;5.872;2023-03-08T09:33:36;42.97;;;19.33;;
39018;SDS011;24786;51.984;5.872;2023-03-08T09:36:22;38.03;;;18.00;;
39018;SDS011;24786;51.984;5.872;2023-03-08T09:38:48;39.13;;;18.17;;
39018;SDS011;24786;51.984;5.872;2023-03-08T09:49:02;27.03;;;13.97;;
39018;SDS011;24786;51.984;5.872;2023-03-08T09:51:33;31.83;;;14.80;;
39018;SDS011;24786;51.984;5.872;2023-03-08T09:54:04;28.13;;;15.55;;
39018;SDS011;24786;51.984;5.872;2023-03-08T09:59:06;29.30;;;15.43;;
39018;SDS011;24786;51.984;5.872;2023-03-08T10:01:54;32.28;;;15.85;;
39018;SDS011;24786;51.984;5.872;2023-03-08T10:04:49;31.90;;;15.80;;
39018;SDS011;24786;51.984;5.872;2023-03-08T10:07:44;30.25;;;16.10;;
39018;SDS011;24786;51.984;5.872;2023-03-08T10:15:57;31.80;;;16.58;;
39018;SDS011;24786;51.984;5.872;2023-03-08T10:20:57;27.65;;;14.27;;
39018;SDS011;24786;51.984;5.872;2023-03-08T10:23:26;25.83;;;14.05;;
39018;SDS011;24786;51.984;5.872;2023-03-08T10:25:54;27.00;;;15.37;;
39018;SDS011;24786;51.984;5.872;2023-03-08T10:28:20;28.05;;;14.80;;
39018;SDS011;24786;51.984;5.872;2023-03-08T10:30:49;26.23;;;13.93;;
39018;SDS011;24786;51.984;5.872;2023-03-08T10:33:17;22.75;;;13.73;;
39018;SDS011;24786;51.984;5.872;2023-03-08T10:36:05;27.02;;;13.85;;
39018;SDS011;24786;51.984;5.872;2023-03-08T10:38:42;29.40;;;14.02;;
39018;SDS011;24786;51.984;5.872;2023-03-08T10:43:43;29.52;;;16.17;;
39018;SDS011;24786;51.984;5.872;2023-03-08T10:46:14;24.13;;;13.30;;
39018;SDS011;24786;51.984;5.872;2023-03-08T10:48:41;32.20;;;16.75;;
39018;SDS011;24786;51.984;5.872;2023-03-08T10:51:18;40.10;;;20.30;;
39018;SDS011;24786;51.984;5.872;2023-03-08T10:53:58;37.25;;;19.23;;
39018;SDS011;24786;51.984;5.872;2023-03-08T10:56:35;40.90;;;21.80;;
39018;SDS011;24786;51.984;5.872;2023-03-08T10:59:04;35.42;;;18.25;;
39018;SDS011;24786;51.984;5.872;2023-03-08T11:01:49;30.15;;;17.13;;
39018;SDS011;24786;51.984;5.872;2023-03-08T11:04:17;28.70;;;15.63;;
39018;SDS011;24786;51.984;5.872;2023-03-08T11:06:45;26.50;;;13.05;;
39018;SDS011;24786;51.984;5.872;2023-03-08T11:09:44;23.60;;;12.85;;
39018;SDS011;24786;51.984;5.872;2023-03-08T11:12:03;22.85;;;12.05;;
39018;SDS011;24786;51.984;5.872;2023-03-08T11:14:28;27.55;;;13.10;;
39018;SDS011;24786;51.984;5.872;2023-03-08T11:31:03;29.33;;;14.55;;
39018;SDS011;24786;51.984;5.872;2023-03-08T11:36:39;33.55;;;15.30;;
39018;SDS011;24786;51.984;5.872;2023-03-08T11:39:11;25.13;;;12.90;;
39018;SDS011;24786;51.984;5.872;2023-03-08T11:50:10;22.08;;;12.13;;
39018;SDS011;24786;51.984;5.872;2023-03-08T11:58:28;24.98;;;13.63;;
39018;SDS011;24786;51.984;5.872;2023-03-08T12:00:59;21.05;;;12.15;;
39018;SDS011;24786;51.984;5.872;2023-03-08T12:03:32;26.67;;;13.63;;
39018;SDS011;24786;51.984;5.872;2023-03-08T12:06:13;23.85;;;12.90;;
39018;SDS011;24786;51.984;5.872;2023-03-08T12:08:45;24.02;;;13.40;;
39018;SDS011;24786;51.984;5.872;2023-03-08T12:11:19;28.02;;;13.98;;
39018;SDS011;24786;51.984;5.872;2023-03-08T12:13:49;22.60;;;13.15;;
39018;SDS011;24786;51.984;5.872;2023-03-08T12:16:24;24.77;;;13.63;;
39018;SDS011;24786;51.984;5.872;2023-03-08T12:33:13;23.05;;;13.05;;
39018;SDS011;24786;51.984;5.872;2023-03-08T12:35:50;31.55;;;13.13;;
39018;SDS011;24786;51.984;5.872;2023-03-08T12:41:42;23.13;;;12.15;;
39018;SDS011;24786;51.984;5.872;2023-03-08T12:44:24;21.08;;;11.52;;
39018;SDS011;24786;51.984;5.872;2023-03-08T12:46:59;20.45;;;12.38;;
39018;SDS011;24786;51.984;5.872;2023-03-08T12:50:06;19.17;;;11.63;;
39018;SDS011;24786;51.984;5.872;2023-03-08T12:52:34;17.73;;;10.40;;
39018;SDS011;24786;51.984;5.872;2023-03-08T12:55:15;16.73;;;10.00;;
39018;SDS011;24786;51.984;5.872;2023-03-08T12:57:55;17.45;;;10.30;;
39018;SDS011;24786;51.984;5.872;2023-03-08T13:00:44;15.88;;;10.10;;
39018;SDS011;24786;51.984;5.872;2023-03-08T13:05:38;16.98;;;8.98;;
39018;SDS011;24786;51.984;5.872;2023-03-08T13:10:39;18.20;;;9.88;;
39018;SDS011;24786;51.984;5.872;2023-03-08T13:18:46;13.85;;;7.72;;
39018;SDS011;24786;51.984;5.872;2023-03-08T13:21:25;14.50;;;8.63;;
39018;SDS011;24786;51.984;5.872;2023-03-08T13:24:05;13.63;;;8.15;;
39018;SDS011;24786;51.984;5.872;2023-03-08T13:30:06;14.73;;;9.10;;
39018;SDS011;24786;51.984;5.872;2023-03-08T13:32:48;11.97;;;8.10;;
39018;SDS011;24786;51.984;5.872;2023-03-08T13:35:15;11.88;;;7.05;;
39018;SDS011;24786;51.984;5.872;2023-03-08T13:37:41;11.98;;;7.18;;
39018;SDS011;24786;51.984;5.872;2023-03-08T13:40:17;11.85;;;7.35;;
39018;SDS011;24786;51.984;5.872;2023-03-08T13:42:57;18.67;;;8.23;;
39018;SDS011;24786;51.984;5.872;2023-03-08T13:45:29;11.27;;;7.18;;
39018;SDS011;24786;51.984;5.872;2023-03-08T13:47:56;13.20;;;7.38;;
39018;SDS011;24786;51.984;5.872;2023-03-08T13:50:28;10.88;;;7.45;;
39018;SDS011;24786;51.984;5.872;2023-03-08T13:53:03;9.43;;;6.60;;
39018;SDS011;24786;51.984;5.872;2023-03-08T13:55:34;14.70;;;6.78;;
39018;SDS011;24786;51.984;5.872;2023-03-08T13:58:11;9.38;;;6.60;;
39018;SDS011;24786;51.984;5.872;2023-03-08T14:00:59;10.45;;;6.72;;
39018;SDS011;24786;51.984;5.872;2023-03-08T14:03:37;10.82;;;6.85;;
39018;SDS011;24786;51.984;5.872;2023-03-08T14:06:12;11.02;;;6.82;;
39018;SDS011;24786;51.984;5.872;2023-03-08T14:08:49;12.27;;;6.45;;
39018;SDS011;24786;51.984;5.872;2023-03-08T14:11:26;11.50;;;7.28;;
39018;SDS011;24786;51.984;5.872;2023-03-08T14:13:54;10.85;;;7.38;;
39018;SDS011;24786;51.984;5.872;2023-03-08T14:16:23;11.85;;;7.05;;
39018;SDS011;24786;51.984;5.872;2023-03-08T14:19:07;11.65;;;6.57;;
39018;SDS011;24786;51.984;5.872;2023-03-08T14:21:58;10.52;;;6.95;;
39018;SDS011;24786;51.984;5.872;2023-03-08T14:24:34;10.85;;;6.85;;
39018;SDS011;24786;51.984;5.872;2023-03-08T14:27:04;11.32;;;6.78;;
39018;SDS011;24786;51.984;5.872;2023-03-08T14:29:58;10.95;;;7.40;;
39018;SDS011;24786;51.984;5.872;2023-03-08T14:32:30;9.77;;;7.07;;
39018;SDS011;24786;51.984;5.872;2023-03-08T14:35:03;15.63;;;7.72;;
39018;SDS011;24786;51.984;5.872;2023-03-08T14:37:31;10.43;;;6.90;;
39018;SDS011;24786;51.984;5.872;2023-03-08T14:40:17;12.88;;;7.88;;
39018;SDS011;24786;51.984;5.872;2023-03-08T14:42:56;11.75;;;7.55;;
39018;SDS011;24786;51.984;5.872;2023-03-08T14:45:39;11.10;;;7.28;;
39018;SDS011;24786;51.984;5.872;2023-03-08T14:50:55;12.55;;;8.52;;
39018;SDS011;24786;51.984;5.872;2023-03-08T14:53:23;15.15;;;9.10;;
39018;SDS011;24786;51.984;5.872;2023-03-08T14:55:50;14.13;;;9.18;;
39018;SDS011;24786;51.984;5.872;2023-03-08T14:58:16;11.27;;;7.43;;
39018;SDS011;24786;51.984;5.872;2023-03-08T15:00:53;14.20;;;8.05;;
39018;SDS011;24786;51.984;5.872;2023-03-08T15:03:20;12.85;;;8.18;;
39018;SDS011;24786;51.984;5.872;2023-03-08T15:05:46;11.40;;;7.75;;
39018;SDS011;24786;51.984;5.872;2023-03-08T15:08:12;13.68;;;8.40;;
39018;SDS011;24786;51.984;5.872;2023-03-08T15:10:40;13.80;;;8.55;;
39018;SDS011;24786;51.984;5.872;2023-03-08T15:13:09;12.10;;;8.10;;
39018;SDS011;24786;51.984;5.872;2023-03-08T15:15:40;13.73;;;8.57;;
39018;SDS011;24786;51.984;5.872;2023-03-08T15:18:05;16.35;;;7.80;;
39018;SDS011;24786;51.984;5.872;2023-03-08T15:20:31;15.30;;;7.80;;
39018;SDS011;24786;51.984;5.872;2023-03-08T15:23:00;13.00;;;8.00;;
39018;SDS011;24786;51.984;5.872;2023-03-08T15:25:30;12.38;;;8.18;;
39018;SDS011;24786;51.984;5.872;2023-03-08T15:27:58;15.52;;;8.45;;
39018;SDS011;24786;51.984;5.872;2023-03-08T15:30:25;11.85;;;7.65;;
39018;SDS011;24786;51.984;5.872;2023-03-08T15:32:52;16.63;;;8.60;;
39018;SDS011;24786;51.984;5.872;2023-03-08T15:35:18;16.15;;;8.25;;
39018;SDS011;24786;51.984;5.872;2023-03-08T15:37:44;14.43;;;8.48;;
39018;SDS011;24786;51.984;5.872;2023-03-08T15:40:14;12.80;;;7.57;;
39018;SDS011;24786;51.984;5.872;2023-03-08T15:42:41;12.52;;;7.65;;
39018;SDS011;24786;51.984;5.872;2023-03-08T15:45:08;14.77;;;8.75;;
39018;SDS011;24786;51.984;5.872;2023-03-08T15:47:34;13.63;;;7.93;;
39018;SDS011;24786;51.984;5.872;2023-03-08T15:50:00;14.13;;;8.27;;
39018;SDS011;24786;51.984;5.872;2023-03-08T15:52:26;14.43;;;9.25;;
39018;SDS011;24786;51.984;5.872;2023-03-08T15:54:55;13.00;;;8.23;;
39018;SDS011;24786;51.984;5.872;2023-03-08T15:57:20;14.75;;;9.30;;
39018;SDS011;24786;51.984;5.872;2023-03-08T15:59:46;13.68;;;8.93;;
39018;SDS011;24786;51.984;5.872;2023-03-08T16:02:14;17.20;;;10.07;;
39018;SDS011;24786;51.984;5.872;2023-03-08T16:04:41;16.80;;;9.35;;
39018;SDS011;24786;51.984;5.872;2023-03-08T16:07:10;14.75;;;9.07;;